createdAt,value
2022-07-25T00:02:17.512Z,69.03
2022-07-25T00:04:46.216Z,68.74
2022-07-25T00:07:16.244Z,68.41
2022-07-25T00:09:44.821Z,68.17
2022-07-25T00:12:14.393Z,67.91
2022-07-25T00:14:43.115Z,67.71
2022-07-25T00:17:11.799Z,67.44
2022-07-25T00:19:40.689Z,67.42
2022-07-25T00:22:09.451Z,67.22
2022-07-25T00:24:38.574Z,67.20
2022-07-25T00:27:06.849Z,67.11
2022-07-25T00:29:36.559Z,67.01
2022-07-25T00:32:06.064Z,66.96
2022-07-25T00:34:34.521Z,66.95
2022-07-25T00:37:03.232Z,66.81
2022-07-25T00:39:32.048Z,66.90
2022-07-25T00:42:04.476Z,66.90
2022-07-25T00:44:33.898Z,66.89
2022-07-25T00:47:02.383Z,66.77
2022-07-25T00:49:31.062Z,66.84
2022-07-25T00:52:00.299Z,66.81
2022-07-25T00:54:29.359Z,66.65
2022-07-25T00:56:57.925Z,66.39
2022-07-25T00:59:26.576Z,66.03
2022-07-25T01:01:55.387Z,65.71
2022-07-25T01:04:24.301Z,65.48
2022-07-25T01:06:52.912Z,65.38
2022-07-25T01:09:21.698Z,65.34
2022-07-25T01:11:50.283Z,65.22
2022-07-25T01:14:18.840Z,65.12
2022-07-25T01:16:47.355Z,64.97
2022-07-25T01:19:17.509Z,64.86
2022-07-25T01:21:46.229Z,64.84
2022-07-25T01:24:14.460Z,64.81
2022-07-25T01:26:43.089Z,64.70
2022-07-25T01:29:11.467Z,64.69
2022-07-25T01:31:39.800Z,64.58
2022-07-25T01:34:08.872Z,64.63
2022-07-25T01:36:37.731Z,64.46
2022-07-25T01:39:06.109Z,64.66
2022-07-25T01:41:34.893Z,64.77
2022-07-25T01:44:04.507Z,64.86
2022-07-25T01:46:33.146Z,64.94
2022-07-25T01:49:01.973Z,65.05
2022-07-25T01:51:30.664Z,65.05
2022-07-25T01:53:59.141Z,65.12
2022-07-25T01:56:28.629Z,65.30
2022-07-25T01:59:00.429Z,65.61
2022-07-25T02:01:29.055Z,65.87
2022-07-25T02:03:57.573Z,66.14
2022-07-25T02:06:26.261Z,66.44
2022-07-25T02:08:54.641Z,66.89
2022-07-25T02:11:23.180Z,67.14
2022-07-25T02:13:51.731Z,67.36
2022-07-25T02:16:20.233Z,67.54
2022-07-25T02:18:58.259Z,67.61
2022-07-25T02:21:26.767Z,67.56
2022-07-25T02:23:55.071Z,67.55
2022-07-25T02:26:23.701Z,67.48
2022-07-25T02:28:52.210Z,67.45
2022-07-25T02:31:20.857Z,67.47
2022-07-25T02:33:49.543Z,67.42
2022-07-25T02:36:17.863Z,67.37
2022-07-25T02:38:46.646Z,67.30
2022-07-25T02:41:15.467Z,67.27
2022-07-25T02:43:43.917Z,67.30
2022-07-25T02:46:12.249Z,67.41
2022-07-25T02:48:40.906Z,67.51
2022-07-25T02:51:09.380Z,67.56
2022-07-25T02:53:56.633Z,67.58
2022-07-25T02:56:30.330Z,67.54
2022-07-25T02:59:00.302Z,67.46
2022-07-25T03:01:29.151Z,67.67
2022-07-25T03:03:57.625Z,67.70
2022-07-25T03:06:26.355Z,67.77
2022-07-25T03:08:54.895Z,67.94
2022-07-25T03:11:23.385Z,68.18
2022-07-25T03:13:51.804Z,68.34
2022-07-25T03:16:20.455Z,68.60
2022-07-25T03:18:49.172Z,68.82
2022-07-25T03:21:17.392Z,68.93
2022-07-25T03:23:49.134Z,69.01
2022-07-25T03:26:21.195Z,69.05
2022-07-25T03:28:50.084Z,69.05
2022-07-25T03:31:18.604Z,68.99
2022-07-25T03:33:47.231Z,68.84
2022-07-25T03:36:15.973Z,68.63
2022-07-25T03:38:44.390Z,68.55
2022-07-25T03:41:13.673Z,68.44
2022-07-25T03:43:42.481Z,68.32
2022-07-25T03:46:11.077Z,68.32
2022-07-25T03:48:39.689Z,68.23
2022-07-25T03:51:08.821Z,68.07
2022-07-25T03:53:57.029Z,67.90
2022-07-25T03:56:26.184Z,67.54
2022-07-25T03:58:55.283Z,67.29
2022-07-25T04:01:23.627Z,67.11
2022-07-25T04:03:54.009Z,66.91
2022-07-25T04:06:23.560Z,66.72
2022-07-25T04:08:52.891Z,66.56
2022-07-25T04:11:21.844Z,66.31
2022-07-25T04:13:51.109Z,66.13
2022-07-25T04:16:22.490Z,65.98
2022-07-25T04:18:52.372Z,65.91
2022-07-25T04:21:21.162Z,65.87
2022-07-25T04:23:50.030Z,65.62
2022-07-25T04:26:19.686Z,65.43
2022-07-25T04:28:48.240Z,65.24
2022-07-25T04:31:17.234Z,65.16
2022-07-25T04:33:46.641Z,65.18
2022-07-25T04:36:15.086Z,65.26
2022-07-25T04:38:43.432Z,65.01
2022-07-25T04:41:12.276Z,64.81
2022-07-25T04:43:44.890Z,64.61
2022-07-25T04:46:21.522Z,64.47
2022-07-25T04:48:50.776Z,64.18
2022-07-25T04:51:19.288Z,64.11
2022-07-25T04:53:47.867Z,64.18
2022-07-25T04:56:16.655Z,64.23
2022-07-25T04:58:45.042Z,64.19
2022-07-25T05:01:13.683Z,64.19
2022-07-25T05:03:50.612Z,63.95
2022-07-25T05:06:19.926Z,63.76
2022-07-25T05:08:48.407Z,63.50
2022-07-25T05:11:16.763Z,63.25
2022-07-25T05:13:45.647Z,63.19
2022-07-25T05:16:14.399Z,62.98
2022-07-25T05:18:42.739Z,62.99
2022-07-25T05:21:12.886Z,62.64
2022-07-25T05:23:42.468Z,62.27
2022-07-25T05:26:10.717Z,62.12
2022-07-25T05:28:39.914Z,61.89
2022-07-25T05:31:08.346Z,61.68
2022-07-25T05:33:36.875Z,61.58
2022-07-25T05:36:06.432Z,61.69
2022-07-25T05:38:35.274Z,61.61
2022-07-25T05:41:04.571Z,61.46
2022-07-25T05:43:33.152Z,61.55
2022-07-25T05:46:03.398Z,61.30
2022-07-25T05:48:32.117Z,61.13
2022-07-25T05:51:00.700Z,61.07
2022-07-25T05:53:29.207Z,61.01
2022-07-25T05:55:57.605Z,60.83
2022-07-25T05:58:29.939Z,60.50
2022-07-25T06:00:59.176Z,60.60
2022-07-25T06:03:28.116Z,60.25
2022-07-25T06:05:56.971Z,60.21
2022-07-25T06:08:27.792Z,60.09
2022-07-25T06:10:58.664Z,60.21
2022-07-25T06:13:28.104Z,60.06
2022-07-25T06:15:57.143Z,59.83
2022-07-25T06:18:27.072Z,59.97
2022-07-25T06:20:55.452Z,59.85
2022-07-25T06:23:24.108Z,59.84
2022-07-25T06:25:56.584Z,59.67
2022-07-25T06:28:25.087Z,59.54
2022-07-25T06:30:53.375Z,59.66
2022-07-25T06:33:22.176Z,59.22
2022-07-25T06:35:50.611Z,59.25
2022-07-25T06:38:19.010Z,59.66
2022-07-25T06:40:47.871Z,60.53
2022-07-25T06:43:16.251Z,60.91
2022-07-25T06:45:47.668Z,61.63
2022-07-25T06:48:17.924Z,62.35
2022-07-25T06:50:46.510Z,62.24
2022-07-25T06:53:14.986Z,61.50
2022-07-25T06:55:43.775Z,60.90
2022-07-25T06:58:12.004Z,60.45
2022-07-25T07:00:40.764Z,59.99
2022-07-25T07:03:09.795Z,58.71
2022-07-25T07:05:39.953Z,58.30
2022-07-25T07:08:08.468Z,57.99
2022-07-25T07:10:37.289Z,59.00
2022-07-25T07:13:14.102Z,59.42
2022-07-25T07:15:50.294Z,59.77
2022-07-25T07:18:19.871Z,59.40
2022-07-25T07:20:48.767Z,59.15
2022-07-25T07:23:17.914Z,59.19
2022-07-25T07:25:47.558Z,59.29
2022-07-25T07:28:16.662Z,59.58
2022-07-25T07:31:15.257Z,59.28
2022-07-25T07:33:35.637Z,58.15
2022-07-25T07:36:04.111Z,58.37
2022-07-25T07:38:32.345Z,58.99
2022-07-25T07:41:01.083Z,58.70
2022-07-25T07:43:32.009Z,58.42
2022-07-25T07:46:01.552Z,57.63
2022-07-25T07:48:32.600Z,56.52
2022-07-25T07:51:02.762Z,56.36
2022-07-25T07:53:50.934Z,56.91
2022-07-25T07:56:19.752Z,55.91
2022-07-25T07:58:48.430Z,55.39
2022-07-25T08:01:17.214Z,54.63
2022-07-25T08:03:45.676Z,53.93
2022-07-25T08:06:14.358Z,53.85
2022-07-25T08:08:42.797Z,53.54
2022-07-25T08:11:11.217Z,52.39
2022-07-25T08:13:39.926Z,52.01
2022-07-25T08:16:08.990Z,51.44
2022-07-25T08:18:37.610Z,51.25
2022-07-25T08:21:07.290Z,51.38
2022-07-25T08:23:39.141Z,50.44
2022-07-25T08:26:08.050Z,50.62
2022-07-25T08:28:36.550Z,49.82
2022-07-25T08:31:05.519Z,50.53
2022-07-25T08:33:34.716Z,50.72
2022-07-25T08:36:04.213Z,49.58
2022-07-25T08:38:32.698Z,49.88
2022-07-25T08:41:03.115Z,49.39
2022-07-25T08:43:33.200Z,48.95
2022-07-25T08:46:02.649Z,49.09
2022-07-25T08:48:31.585Z,49.43
2022-07-25T08:51:00.460Z,49.58
2022-07-25T08:53:33.506Z,49.32
2022-07-25T08:56:13.421Z,48.68
2022-07-25T08:58:44.988Z,48.21
2022-07-25T09:01:14.703Z,47.40
2022-07-25T09:03:44.407Z,47.43
2022-07-25T09:06:18.978Z,47.05
2022-07-25T09:09:00.479Z,47.05
2022-07-25T09:11:35.217Z,47.14
2022-07-25T09:14:09.568Z,46.39
2022-07-25T09:16:41.219Z,45.98
2022-07-25T09:19:17.792Z,46.07
2022-07-25T09:21:59.548Z,46.25
2022-07-25T09:24:28.785Z,45.87
2022-07-25T09:26:59.837Z,45.63
2022-07-25T09:29:31.100Z,45.06
2022-07-25T09:32:01.785Z,45.03
2022-07-25T09:34:37.944Z,44.74
2022-07-25T09:37:09.871Z,44.77
2022-07-25T09:39:45.532Z,44.87
2022-07-25T09:42:16.721Z,44.78
2022-07-25T09:44:57.515Z,44.98
2022-07-25T09:47:26.602Z,44.91
2022-07-25T09:49:55.778Z,44.91
2022-07-25T09:52:24.362Z,44.91
2022-07-25T09:54:54.910Z,43.34
2022-07-25T09:57:24.395Z,42.90
2022-07-25T09:59:56.300Z,43.12
2022-07-25T10:02:40.777Z,43.24
2022-07-25T10:05:18.510Z,42.96
2022-07-25T10:07:50.485Z,42.69
2022-07-25T10:10:32.016Z,42.38
2022-07-25T10:13:10.725Z,41.93
2022-07-25T10:15:44.180Z,41.94
2022-07-25T10:18:14.297Z,41.22
2022-07-25T10:20:44.719Z,40.28
2022-07-25T10:23:27.193Z,41.09
2022-07-25T10:26:15.711Z,40.64
2022-07-25T10:28:47.540Z,40.62
2022-07-25T10:31:30.447Z,39.87
2022-07-25T10:34:02.324Z,39.30
2022-07-25T10:36:51.477Z,39.67
2022-07-25T10:39:21.595Z,39.73
2022-07-25T10:42:00.443Z,39.15
2022-07-25T10:44:40.009Z,38.57
2022-07-25T10:47:13.464Z,38.29
2022-07-25T10:50:15.282Z,38.52
2022-07-25T10:52:42.962Z,38.68
2022-07-25T10:55:22.280Z,38.93
2022-07-25T10:58:21.847Z,38.16
2022-07-25T11:00:51.520Z,37.77
2022-07-25T11:03:22.155Z,37.55
2022-07-25T11:05:54.875Z,37.82
2022-07-25T11:08:35.186Z,37.95
2022-07-25T11:11:03.712Z,37.39
2022-07-25T11:13:37.562Z,37.61
2022-07-25T11:16:06.766Z,37.35
2022-07-25T11:18:41.011Z,37.33
2022-07-25T11:21:10.041Z,35.45
2022-07-25T11:23:40.560Z,35.13
2022-07-25T11:26:12.100Z,34.97
2022-07-25T11:28:45.723Z,34.93
2022-07-25T11:31:17.059Z,34.66
2022-07-25T11:33:48.359Z,35.05
2022-07-25T11:36:17.696Z,35.06
2022-07-25T11:38:49.377Z,34.94
2022-07-25T11:41:29.283Z,34.01
2022-07-25T11:43:57.901Z,32.96
2022-07-25T11:46:26.451Z,33.32
2022-07-25T11:49:05.779Z,33.83
2022-07-25T11:51:39.217Z,33.76
2022-07-25T11:54:10.475Z,33.46
2022-07-25T11:56:42.940Z,33.51
2022-07-25T11:59:12.558Z,33.53
2022-07-25T12:01:43.155Z,32.11
2022-07-25T12:04:14.565Z,31.63
2022-07-25T12:06:45.236Z,30.84
2022-07-25T12:09:21.759Z,30.42
2022-07-25T12:11:50.291Z,30.26
2022-07-25T12:14:18.696Z,30.40
2022-07-25T12:16:48.090Z,30.34
2022-07-25T12:19:22.246Z,29.83
2022-07-25T12:21:51.179Z,28.28
2022-07-25T12:24:19.511Z,27.70
2022-07-25T12:26:47.954Z,28.02
2022-07-25T12:29:16.488Z,28.95
2022-07-25T12:31:45.101Z,29.30
2022-07-25T12:34:13.407Z,28.93
2022-07-25T12:36:45.413Z,28.52
2022-07-25T12:39:14.126Z,28.28
2022-07-25T12:41:43.048Z,28.05
2022-07-25T12:44:11.666Z,28.15
2022-07-25T12:58:15.553Z,29.21
2022-07-25T13:00:44.729Z,29.00
2022-07-25T13:03:14.495Z,29.56
2022-07-25T13:05:43.188Z,29.10
2022-07-25T13:08:11.867Z,29.36
2022-07-25T13:10:40.350Z,29.34
2022-07-25T13:13:09.172Z,29.69
2022-07-25T13:15:38.339Z,29.70
2022-07-25T13:18:06.978Z,29.77
2022-07-25T13:20:37.716Z,29.59
2022-07-25T13:23:06.330Z,29.17
2022-07-25T13:25:35.127Z,28.89
2022-07-25T13:28:08.575Z,28.60
2022-07-25T13:30:40.285Z,28.06
2022-07-25T13:33:11.013Z,27.91
2022-07-25T13:35:39.996Z,27.65
2022-07-25T13:38:12.176Z,27.74
2022-07-25T13:40:42.394Z,28.05
2022-07-25T13:43:13.221Z,27.96
2022-07-25T13:45:42.633Z,27.79
2022-07-25T13:48:28.812Z,27.74
2022-07-25T13:50:59.646Z,26.97
2022-07-25T13:53:30.588Z,25.35
2022-07-25T13:56:00.142Z,24.68
2022-07-25T13:58:29.000Z,24.86
2022-07-25T14:00:57.860Z,25.13
2022-07-25T14:03:26.376Z,25.01
2022-07-25T14:05:54.828Z,25.25
2022-07-25T14:08:23.764Z,25.78
2022-07-25T14:10:52.941Z,26.17
2022-07-25T14:13:21.834Z,26.42
2022-07-25T14:15:50.722Z,26.81
2022-07-25T14:18:19.172Z,27.46
2022-07-25T14:20:47.960Z,27.66
2022-07-25T14:23:16.806Z,27.88
2022-07-25T14:25:45.466Z,28.18
2022-07-25T14:28:13.899Z,28.83
2022-07-25T14:30:42.635Z,29.79
2022-07-25T14:33:27.498Z,30.38
2022-07-25T14:35:59.771Z,31.03
2022-07-25T14:38:28.230Z,31.06
2022-07-25T14:40:57.243Z,31.71
2022-07-25T14:43:25.817Z,32.09
2022-07-25T14:45:54.526Z,32.17
2022-07-25T14:48:23.022Z,31.88
2022-07-25T14:50:51.782Z,31.69
2022-07-25T14:53:20.548Z,31.79
2022-07-25T14:55:49.052Z,31.85
2022-07-25T14:58:17.938Z,32.09
2022-07-25T15:00:46.493Z,32.17
2022-07-25T15:03:15.621Z,32.34
2022-07-25T15:05:44.816Z,32.30
2022-07-25T15:08:14.447Z,32.47
2022-07-25T15:10:42.801Z,32.24
2022-07-25T15:13:30.355Z,32.46
2022-07-25T15:16:00.337Z,32.24
2022-07-25T15:18:29.639Z,32.11
2022-07-25T15:20:58.330Z,31.85
2022-07-25T15:23:30.230Z,32.16
2022-07-25T15:26:02.342Z,32.18
2022-07-25T15:28:37.149Z,31.99
2022-07-25T15:31:06.572Z,31.57
2022-07-25T15:33:35.177Z,31.69
2022-07-25T15:36:03.771Z,32.04
2022-07-25T15:38:32.377Z,32.04
2022-07-25T15:41:00.762Z,32.36
2022-07-25T15:43:29.314Z,32.57
2022-07-25T15:45:58.118Z,32.82
2022-07-25T15:48:28.044Z,33.11
2022-07-25T15:50:59.075Z,33.52
2022-07-25T15:53:28.655Z,34.03
2022-07-25T15:55:57.355Z,34.62
2022-07-25T15:58:27.055Z,35.03
2022-07-25T16:00:55.760Z,34.88
2022-07-25T16:03:24.502Z,35.10
2022-07-25T16:05:55.700Z,35.08
2022-07-25T16:08:24.084Z,35.31
2022-07-25T16:10:53.044Z,35.37
2022-07-25T16:13:21.900Z,35.43
2022-07-25T16:15:50.343Z,35.62
2022-07-25T16:18:18.792Z,35.43
2022-07-25T16:20:47.313Z,35.32
2022-07-25T16:23:15.855Z,35.17
2022-07-25T16:25:44.199Z,34.78
2022-07-25T16:28:12.816Z,34.35
2022-07-25T16:30:41.502Z,34.41
2022-07-25T16:33:09.982Z,34.75
2022-07-25T16:35:38.567Z,34.92
2022-07-25T16:38:07.250Z,34.95
2022-07-25T16:40:36.040Z,34.81
2022-07-25T16:43:04.525Z,34.61
2022-07-25T16:45:33.234Z,34.25
2022-07-25T16:48:01.891Z,34.28
2022-07-25T16:50:30.272Z,34.22
2022-07-25T16:52:58.650Z,34.04
2022-07-25T16:55:27.335Z,34.19
2022-07-25T16:57:55.919Z,34.27
2022-07-25T17:00:24.623Z,34.52
2022-07-25T17:02:53.289Z,34.62
2022-07-25T17:05:21.859Z,34.72
2022-07-25T17:07:57.021Z,34.87
2022-07-25T17:10:28.604Z,34.70
2022-07-25T17:12:57.076Z,34.55
2022-07-25T17:15:25.732Z,34.39
2022-07-25T17:17:54.239Z,34.21
2022-07-25T17:20:22.632Z,34.42
2022-07-25T17:22:51.172Z,34.60
2022-07-25T17:25:19.595Z,34.76
2022-07-25T17:27:48.238Z,34.75
2022-07-25T17:30:16.616Z,34.77
2022-07-25T17:32:45.183Z,34.73
2022-07-25T17:35:13.784Z,35.06
2022-07-25T17:37:42.374Z,35.16
2022-07-25T17:40:11.371Z,35.13
2022-07-25T17:42:44.950Z,35.16
2022-07-25T17:45:15.569Z,35.16
2022-07-25T17:47:44.528Z,35.26
2022-07-25T17:50:13.254Z,35.34
2022-07-25T17:52:41.866Z,35.43
2022-07-25T17:55:12.179Z,35.34
2022-07-25T17:57:42.614Z,35.54
2022-07-25T18:00:13.112Z,35.64
2022-07-25T18:02:42.270Z,35.86
2022-07-25T18:05:11.157Z,35.99
2022-07-25T18:07:45.033Z,36.13
2022-07-25T18:10:13.613Z,36.70
2022-07-25T18:12:42.801Z,37.16
2022-07-25T18:15:12.548Z,37.63
2022-07-25T18:17:48.838Z,38.19
2022-07-25T18:20:18.112Z,38.68
2022-07-25T18:22:46.622Z,39.02
2022-07-25T18:25:15.434Z,39.60
2022-07-25T18:27:46.211Z,40.14
2022-07-25T18:30:15.468Z,40.31
2022-07-25T18:32:44.071Z,40.95
2022-07-25T18:35:13.293Z,41.64
2022-07-25T18:37:41.977Z,41.77
2022-07-25T18:40:11.468Z,42.56
2022-07-25T18:42:40.765Z,42.85
2022-07-25T18:45:10.161Z,43.44
2022-07-25T18:47:40.202Z,43.77
2022-07-25T18:50:09.582Z,44.19
2022-07-25T18:52:37.989Z,44.82
2022-07-25T18:55:09.004Z,45.20
2022-07-25T18:57:37.957Z,45.45
2022-07-25T19:00:09.540Z,46.24
2022-07-25T19:02:38.131Z,46.31
2022-07-25T19:05:08.923Z,46.47
2022-07-25T19:07:38.919Z,46.81
2022-07-25T19:10:07.774Z,47.27
2022-07-25T19:12:36.866Z,47.96
2022-07-25T19:15:06.468Z,48.05
2022-07-25T19:17:37.172Z,47.77
2022-07-25T19:20:06.685Z,48.41
2022-07-25T19:22:35.328Z,48.71
2022-07-25T19:25:08.443Z,49.01
2022-07-25T19:27:37.791Z,49.39
2022-07-25T19:30:08.092Z,49.50
2022-07-25T19:32:37.309Z,49.54
2022-07-25T19:35:06.906Z,49.58
2022-07-25T19:37:35.602Z,50.23
2022-07-25T19:40:06.472Z,50.42
2022-07-25T19:42:35.349Z,50.25
2022-07-25T19:45:04.952Z,50.29
2022-07-25T19:47:33.631Z,50.55
2022-07-25T19:50:02.316Z,50.74
2022-07-25T19:52:30.933Z,50.86
2022-07-25T19:55:00.499Z,50.90
2022-07-25T19:57:29.726Z,51.13
2022-07-25T19:59:58.322Z,51.01
2022-07-25T20:02:27.028Z,51.20
2022-07-25T20:04:55.783Z,51.29
2022-07-25T20:07:25.260Z,51.58
2022-07-25T20:09:54.151Z,51.18
2022-07-25T20:12:23.498Z,51.60
2022-07-25T20:14:52.441Z,51.98
2022-07-25T20:17:21.252Z,51.85
2022-07-25T20:19:49.816Z,51.93
2022-07-25T20:22:18.604Z,51.85
2022-07-25T20:24:47.269Z,52.00
2022-07-25T20:27:15.974Z,52.07
2022-07-25T20:29:45.017Z,52.09
2022-07-25T20:32:13.417Z,52.17
2022-07-25T20:34:41.820Z,52.06
2022-07-25T20:37:10.323Z,52.20
2022-07-25T20:39:39.300Z,52.25
2022-07-25T20:42:07.990Z,52.18
2022-07-25T20:44:36.505Z,52.51
2022-07-25T20:47:06.106Z,52.36
2022-07-25T20:49:36.753Z,52.36
2022-07-25T20:52:08.244Z,52.23
2022-07-25T20:54:37.189Z,52.36
2022-07-25T20:57:06.144Z,52.34
2022-07-25T20:59:35.115Z,52.30
2022-07-25T21:02:03.969Z,52.32
2022-07-25T21:04:32.431Z,52.27
2022-07-25T21:07:01.091Z,52.13
2022-07-25T21:09:34.804Z,52.00
2022-07-25T21:12:03.663Z,51.82
2022-07-25T21:14:32.076Z,51.72
2022-07-25T21:17:00.577Z,51.56
2022-07-25T21:19:29.438Z,51.46
2022-07-25T21:21:57.924Z,51.22
2022-07-25T21:24:26.426Z,50.93
2022-07-25T21:26:54.713Z,50.75
2022-07-25T21:29:23.154Z,50.62
2022-07-25T21:31:51.987Z,50.44
2022-07-25T21:34:22.754Z,50.29
2022-07-25T21:36:51.158Z,50.20
2022-07-25T21:39:19.739Z,50.28
2022-07-25T21:41:48.250Z,50.23
2022-07-25T21:44:24.212Z,50.15
2022-07-25T21:46:53.214Z,50.09
2022-07-25T21:49:41.336Z,50.12
2022-07-25T21:52:13.977Z,50.14
2022-07-25T21:54:43.730Z,50.18
2022-07-25T21:57:13.730Z,50.19
2022-07-25T21:59:43.759Z,50.27
2022-07-25T22:02:13.008Z,50.31
2022-07-25T22:04:41.926Z,50.36
2022-07-25T22:07:10.413Z,50.34
2022-07-25T22:09:38.816Z,50.47
2022-07-25T22:12:07.843Z,50.54
2022-07-25T22:14:37.797Z,50.68
2022-07-25T22:17:06.317Z,50.59
2022-07-25T22:19:35.456Z,50.79
2022-07-25T22:22:06.131Z,50.71
2022-07-25T22:24:34.790Z,50.82
2022-07-25T22:27:03.476Z,50.86
2022-07-25T22:29:31.987Z,51.00
2022-07-25T22:32:01.019Z,51.14
2022-07-25T22:34:29.864Z,51.26
2022-07-25T22:36:58.170Z,51.43
2022-07-25T22:39:26.575Z,51.57
2022-07-25T22:41:55.107Z,51.65
2022-07-25T22:44:23.488Z,51.77
2022-07-25T22:46:52.017Z,51.87
2022-07-25T22:49:20.700Z,52.07
2022-07-25T22:51:49.850Z,52.15
2022-07-25T22:54:18.738Z,52.28
2022-07-25T22:56:47.603Z,52.45
2022-07-25T22:59:16.929Z,52.58
2022-07-25T23:01:45.385Z,52.65
2022-07-25T23:04:14.355Z,52.70
2022-07-25T23:06:43.266Z,52.77
2022-07-25T23:09:13.709Z,52.88
2022-07-25T23:11:42.278Z,52.93
2022-07-25T23:14:10.742Z,52.99
2022-07-25T23:16:41.820Z,53.05
2022-07-25T23:19:10.775Z,53.09
2022-07-25T23:21:39.824Z,53.09
2022-07-25T23:24:08.192Z,53.07
2022-07-25T23:26:36.779Z,53.11
2022-07-25T23:29:05.455Z,53.13
2022-07-25T23:31:34.053Z,53.23
2022-07-25T23:34:02.613Z,53.24
2022-07-25T23:36:31.212Z,53.31
2022-07-25T23:38:59.780Z,53.36
2022-07-25T23:41:28.602Z,53.44
2022-07-25T23:43:59.500Z,53.45
2022-07-25T23:46:29.580Z,53.57
2022-07-25T23:49:00.249Z,53.58
2022-07-25T23:51:28.980Z,53.62
2022-07-25T23:53:57.607Z,53.70
2022-07-25T23:56:26.507Z,53.73
2022-07-25T23:58:55.091Z,53.80
